createdAt,value
2024-03-13T00:00:28.157Z,8.24
2024-03-13T00:02:55.202Z,8.04
2024-03-13T00:05:24.176Z,8.09
2024-03-13T00:07:52.032Z,8.26
2024-03-13T00:10:19.290Z,8.22
2024-03-13T00:12:45.838Z,8.24
2024-03-13T00:15:12.678Z,8.26
2024-03-13T00:17:39.449Z,8.43
2024-03-13T00:20:07.145Z,8.23
2024-03-13T00:22:38.312Z,8.37
2024-03-13T00:25:11.709Z,8.37
2024-03-13T00:27:38.911Z,8.14
2024-03-13T00:30:07.095Z,8.46
2024-03-13T00:32:34.028Z,8.02
2024-03-13T00:35:02.336Z,8.26
2024-03-13T00:37:28.976Z,8.24
2024-03-13T00:39:55.508Z,8.31
2024-03-13T00:42:22.210Z,8.36
2024-03-13T00:44:48.972Z,8.23
2024-03-13T00:47:19.325Z,8.52
2024-03-13T00:49:45.763Z,8.58
2024-03-13T00:52:12.328Z,8.33
2024-03-13T00:54:47.665Z,8.29
2024-03-13T00:57:18.556Z,8.65
2024-03-13T00:59:46.028Z,8.67
2024-03-13T01:02:12.768Z,8.52
2024-03-13T01:04:39.313Z,8.28
2024-03-13T01:07:09.640Z,8.23
2024-03-13T01:09:36.551Z,8.13
2024-03-13T01:12:03.418Z,8.14
2024-03-13T01:14:30.081Z,8.11
2024-03-13T01:17:06.201Z,8.15
2024-03-13T01:19:35.893Z,8.09
2024-03-13T01:22:09.092Z,8.11
2024-03-13T01:24:35.838Z,8.15
2024-03-13T01:27:02.329Z,8.13
2024-03-13T01:29:28.890Z,7.99
2024-03-13T01:31:58.617Z,8.11
2024-03-13T01:34:26.163Z,8.02
2024-03-13T01:37:11.831Z,8.09
2024-03-13T01:39:38.689Z,8.31
2024-03-13T01:42:23.619Z,8.12
2024-03-13T01:45:26.074Z,8.14
2024-03-13T01:48:15.818Z,8.03
2024-03-13T01:54:10.035Z,7.78
2024-03-13T01:56:38.417Z,7.76
2024-03-13T01:59:10.934Z,7.79
2024-03-13T02:01:55.929Z,7.74
2024-03-13T02:04:22.836Z,7.90
2024-03-13T02:06:54.978Z,8.03
2024-03-13T02:09:24.289Z,7.82
2024-03-13T02:11:50.801Z,7.86
2024-03-13T02:14:17.318Z,7.73
2024-03-13T02:16:44.069Z,7.87
2024-03-13T02:19:11.748Z,7.80
2024-03-13T02:21:38.361Z,7.67
2024-03-13T02:24:06.129Z,8.13
2024-03-13T02:26:32.614Z,8.04
2024-03-13T02:28:59.824Z,8.01
2024-03-13T02:36:56.825Z,8.26
2024-03-13T02:39:25.092Z,8.28
2024-03-13T02:58:38.195Z,8.14
2024-03-13T03:01:04.805Z,8.22
2024-03-13T03:03:31.434Z,8.02
2024-03-13T03:05:58.484Z,7.79
2024-03-13T03:16:50.749Z,7.95
2024-03-13T03:19:24.451Z,8.01
2024-03-13T03:21:50.998Z,8.01
2024-03-13T03:24:18.215Z,7.79
2024-03-13T03:26:44.717Z,8.05
2024-03-13T03:29:11.182Z,8.07
2024-03-13T03:31:37.665Z,8.08
2024-03-13T03:34:04.128Z,8.18
2024-03-13T03:36:31.743Z,7.91
2024-03-13T03:38:59.751Z,7.75
2024-03-13T03:41:27.512Z,7.91
2024-03-13T03:43:53.971Z,7.90
2024-03-13T03:46:20.506Z,8.03
2024-03-13T03:48:47.181Z,7.95
2024-03-13T03:51:17.992Z,7.91
2024-03-13T03:53:45.851Z,7.96
2024-03-13T03:56:15.180Z,7.84
2024-03-13T03:58:43.997Z,8.16
2024-03-13T04:01:10.754Z,8.17
2024-03-13T04:03:37.818Z,8.12
2024-03-13T04:06:04.895Z,8.31
2024-03-13T04:08:31.645Z,8.18
2024-03-13T04:10:58.202Z,7.97
2024-03-13T04:13:31.980Z,8.06
2024-03-13T04:15:59.369Z,8.04
2024-03-13T04:18:25.867Z,8.00
2024-03-13T04:20:52.345Z,8.46
2024-03-13T04:23:18.773Z,8.30
2024-03-13T04:25:46.051Z,8.30
2024-03-13T04:28:13.041Z,8.44
2024-03-13T04:30:41.892Z,8.12
2024-03-13T04:33:08.765Z,7.98
2024-03-13T04:35:35.385Z,8.02
2024-03-13T04:38:02.207Z,7.97
2024-03-13T04:40:28.722Z,8.23
2024-03-13T04:42:55.328Z,8.27
2024-03-13T04:45:21.828Z,8.15
2024-03-13T04:47:48.347Z,8.48
2024-03-13T04:50:14.937Z,8.31
2024-03-13T04:52:41.512Z,8.33
2024-03-13T04:55:08.349Z,8.30
2024-03-13T04:57:34.956Z,8.45
2024-03-13T05:00:01.444Z,8.53
2024-03-13T05:02:28.006Z,8.48
2024-03-13T05:04:55.088Z,8.29
2024-03-13T05:07:23.396Z,7.87
2024-03-13T05:09:51.065Z,8.13
2024-03-13T05:12:17.572Z,8.30
2024-03-13T05:14:44.059Z,8.51
2024-03-13T05:17:16.758Z,8.37
2024-03-13T05:19:44.312Z,8.49
2024-03-13T05:22:10.838Z,8.52
2024-03-13T05:24:37.667Z,8.60
2024-03-13T05:27:06.364Z,8.52
2024-03-13T05:32:08.787Z,8.53
2024-03-13T05:34:35.360Z,8.48
2024-03-13T05:37:01.953Z,8.62
2024-03-13T05:39:28.396Z,8.67
2024-03-13T05:41:54.888Z,8.64
2024-03-13T05:44:22.723Z,8.80
2024-03-13T05:46:49.927Z,8.61
2024-03-13T05:49:18.042Z,8.49
2024-03-13T05:51:44.801Z,8.46
2024-03-13T05:54:11.336Z,8.91
2024-03-13T05:56:38.581Z,8.69
2024-03-13T05:59:05.127Z,8.82
2024-03-13T06:01:31.852Z,8.97
2024-03-13T06:04:00.102Z,8.29
2024-03-13T06:06:27.423Z,8.65
2024-03-13T06:08:54.601Z,8.46
2024-03-13T06:11:21.145Z,9.15
2024-03-13T06:13:47.673Z,8.82
2024-03-13T06:16:16.376Z,8.69
2024-03-13T06:18:44.248Z,8.63
2024-03-13T06:21:11.903Z,8.86
2024-03-13T06:23:38.775Z,9.07
2024-03-13T06:26:05.386Z,8.78
2024-03-13T06:28:50.372Z,8.77
2024-03-13T06:31:17.284Z,9.03
2024-03-13T06:33:43.898Z,8.68
2024-03-13T06:36:10.480Z,9.02
2024-03-13T06:38:37.219Z,8.56
2024-03-13T06:41:03.773Z,8.58
2024-03-13T06:43:30.504Z,8.70
2024-03-13T06:45:57.771Z,9.13
2024-03-13T06:48:27.568Z,9.38
2024-03-13T06:50:54.026Z,9.22
2024-03-13T06:53:20.499Z,9.23
2024-03-13T06:58:22.254Z,9.65
2024-03-13T07:00:48.855Z,9.47
2024-03-13T07:03:15.404Z,9.60
2024-03-13T07:05:42.140Z,9.55
2024-03-13T07:08:08.644Z,9.77
2024-03-13T07:10:35.173Z,10.15
2024-03-13T07:13:02.314Z,9.81
2024-03-13T07:15:28.849Z,9.70
2024-03-13T07:17:55.439Z,9.62
2024-03-13T07:20:21.974Z,9.53
2024-03-13T07:22:48.465Z,9.69
2024-03-13T07:25:15.104Z,9.79
2024-03-13T07:27:41.828Z,9.99
2024-03-13T07:30:08.784Z,10.21
2024-03-13T07:32:35.972Z,10.28
2024-03-13T07:35:02.985Z,10.38
2024-03-13T07:37:29.472Z,10.43
2024-03-13T07:39:56.672Z,10.65
2024-03-13T07:42:23.223Z,10.51
2024-03-13T07:44:51.774Z,10.96
2024-03-13T07:47:18.228Z,10.50
2024-03-13T07:49:46.822Z,10.44
2024-03-13T07:52:13.961Z,10.81
2024-03-13T07:54:40.872Z,10.87
2024-03-13T07:57:09.695Z,10.74
2024-03-13T07:59:36.356Z,10.71
2024-03-13T08:02:03.937Z,10.48
2024-03-13T08:04:30.805Z,10.65
2024-03-13T09:06:18.188Z,14.18
2024-03-13T09:11:14.093Z,14.19
2024-03-13T09:13:41.519Z,14.58
2024-03-13T09:16:08.137Z,14.66
2024-03-13T09:18:42.958Z,14.80
2024-03-13T09:21:10.523Z,15.12
2024-03-13T09:23:37.409Z,15.08
2024-03-13T09:26:04.020Z,14.82
2024-03-13T09:28:30.561Z,14.26
2024-03-13T09:30:57.046Z,14.55
2024-03-13T09:33:23.904Z,14.27
2024-03-13T09:35:50.494Z,14.57
2024-03-13T09:38:18.717Z,14.47
2024-03-13T09:40:46.928Z,14.87
2024-03-13T09:43:19.055Z,14.70
2024-03-13T09:45:51.277Z,15.24
2024-03-13T09:48:18.752Z,15.45
2024-03-13T09:50:53.438Z,15.00
2024-03-13T09:53:24.864Z,14.89
2024-03-13T09:55:52.034Z,15.25
2024-03-13T09:58:19.717Z,15.28
2024-03-13T10:00:46.316Z,15.25
2024-03-13T10:03:25.090Z,15.51
2024-03-13T10:05:55.869Z,15.39
2024-03-13T10:08:23.550Z,14.65
2024-03-13T10:10:50.808Z,14.79
2024-03-13T10:13:17.902Z,15.28
2024-03-13T10:15:47.131Z,15.43
2024-03-13T10:18:19.599Z,15.23
2024-03-13T10:21:03.684Z,14.59
2024-03-13T10:23:32.738Z,15.12
2024-03-13T10:26:01.051Z,15.10
2024-03-13T10:28:28.008Z,15.82
2024-03-13T10:30:58.963Z,16.51
2024-03-13T10:33:25.638Z,15.43
2024-03-13T10:35:52.805Z,15.51
2024-03-13T10:38:20.352Z,15.89
2024-03-13T10:40:47.321Z,15.80
2024-03-13T10:43:14.832Z,15.50
2024-03-13T10:45:49.138Z,15.73
2024-03-13T10:48:18.216Z,15.94
2024-03-13T10:50:47.731Z,15.95
2024-03-13T10:53:14.216Z,15.63
2024-03-13T10:55:40.723Z,15.98
2024-03-13T10:58:21.278Z,15.56
2024-03-13T11:00:48.710Z,15.94
2024-03-13T11:03:15.438Z,15.43
2024-03-13T11:05:42.458Z,15.32
2024-03-13T11:08:10.052Z,14.97
2024-03-13T11:10:37.080Z,15.11
2024-03-13T11:13:07.460Z,14.66
2024-03-13T11:15:46.361Z,14.90
2024-03-13T11:18:14.050Z,14.93
2024-03-13T11:21:02.359Z,15.12
2024-03-13T11:23:39.436Z,15.16
2024-03-13T11:26:10.404Z,15.97
2024-03-13T11:28:38.617Z,15.50
2024-03-13T11:31:07.903Z,15.28
2024-03-13T11:33:34.542Z,14.80
2024-03-13T11:36:02.412Z,14.16
2024-03-13T11:38:30.863Z,14.79
2024-03-13T11:40:57.903Z,14.21
2024-03-13T11:43:49.106Z,14.93
2024-03-13T11:46:50.962Z,15.00
2024-03-13T11:49:18.743Z,15.08
2024-03-13T11:52:11.025Z,15.26
2024-03-13T11:54:44.692Z,15.00
2024-03-13T11:57:14.134Z,15.13
2024-03-13T11:59:50.839Z,16.00
2024-03-13T12:02:32.653Z,15.83
2024-03-13T12:05:04.923Z,16.09
2024-03-13T12:07:46.591Z,15.92
2024-03-13T12:10:19.371Z,16.42
2024-03-13T12:12:46.802Z,16.29
2024-03-13T12:15:20.249Z,15.73
2024-03-13T12:17:50.932Z,15.94
2024-03-13T12:20:23.676Z,15.60
2024-03-13T12:22:51.336Z,15.68
2024-03-13T12:25:21.623Z,15.45
2024-03-13T12:27:51.168Z,15.33
2024-03-13T12:30:22.010Z,14.92
2024-03-13T12:32:53.713Z,15.01
2024-03-13T12:35:20.462Z,15.35
2024-03-13T12:37:58.925Z,15.26
2024-03-13T12:40:26.408Z,15.58
2024-03-13T12:42:53.022Z,16.12
2024-03-13T12:45:19.620Z,16.16
2024-03-13T12:47:46.698Z,16.29
2024-03-13T12:50:15.758Z,16.26
2024-03-13T12:52:51.167Z,16.73
2024-03-13T12:55:18.203Z,16.68
2024-03-13T12:57:44.902Z,16.76
2024-03-13T13:00:16.672Z,16.90
2024-03-13T13:02:45.520Z,17.07
2024-03-13T13:05:16.154Z,16.47
2024-03-13T13:07:50.722Z,16.31
2024-03-13T13:10:17.313Z,16.24
2024-03-13T13:12:44.871Z,16.12
2024-03-13T13:15:14.059Z,16.28
2024-03-13T13:17:44.541Z,16.58
2024-03-13T13:20:14.445Z,15.88
2024-03-13T13:22:45.314Z,15.86
2024-03-13T13:25:12.716Z,15.31
2024-03-13T13:30:51.294Z,15.65
2024-03-13T13:33:18.642Z,15.64
2024-03-13T13:35:45.289Z,15.58
2024-03-13T13:38:13.162Z,15.71
2024-03-13T13:40:40.026Z,15.43
2024-03-13T13:43:10.300Z,15.48
2024-03-13T13:45:37.023Z,15.60
2024-03-13T13:48:07.933Z,15.38
2024-03-13T13:50:34.464Z,15.23
2024-03-13T13:53:00.952Z,15.64
2024-03-13T13:55:27.518Z,15.04
2024-03-13T13:57:54.645Z,15.03
2024-03-13T14:00:25.256Z,15.07
2024-03-13T14:02:54.156Z,14.89
2024-03-13T14:05:21.727Z,14.80
2024-03-13T14:07:49.805Z,14.87
2024-03-13T14:10:16.313Z,14.56
2024-03-13T14:12:44.357Z,14.46
2024-03-13T14:15:14.177Z,14.56
2024-03-13T14:17:40.832Z,14.91
2024-03-13T14:20:13.469Z,14.74
2024-03-13T14:22:41.516Z,14.50
2024-03-13T14:25:08.189Z,14.41
2024-03-13T14:27:34.776Z,14.65
2024-03-13T14:30:01.370Z,14.76
2024-03-13T14:32:28.787Z,14.85
2024-03-13T14:34:59.332Z,14.85
2024-03-13T14:37:26.556Z,14.55
2024-03-13T14:39:57.776Z,14.72
2024-03-13T14:42:33.986Z,14.70
2024-03-13T14:45:02.167Z,14.05
2024-03-13T14:47:29.026Z,14.13
2024-03-13T14:49:55.608Z,13.98
2024-03-13T14:52:22.109Z,13.98
2024-03-13T14:54:48.818Z,14.36
2024-03-13T14:57:16.279Z,14.34
2024-03-13T14:59:42.998Z,14.56
2024-03-13T15:02:13.945Z,14.65
2024-03-13T15:04:40.521Z,14.86
2024-03-13T15:07:11.121Z,13.92
2024-03-13T15:09:41.835Z,13.97
2024-03-13T15:12:15.005Z,13.86
2024-03-13T15:14:43.154Z,13.44
2024-03-13T15:17:14.442Z,13.33
2024-03-13T15:19:43.487Z,13.33
2024-03-13T15:22:10.452Z,13.44
2024-03-13T15:24:38.323Z,13.58
2024-03-13T15:27:05.109Z,13.47
2024-03-13T15:29:34.019Z,13.27
2024-03-13T15:32:00.648Z,13.27
2024-03-13T15:34:27.340Z,13.20
2024-03-13T15:36:53.895Z,13.53
2024-03-13T15:39:20.874Z,13.28
2024-03-13T15:41:47.729Z,13.07
2024-03-13T15:44:15.623Z,13.33
2024-03-13T15:46:45.256Z,13.56
2024-03-13T15:49:14.863Z,13.73
2024-03-13T15:51:44.897Z,13.06
2024-03-13T15:54:12.530Z,12.73
2024-03-13T15:56:39.274Z,12.93
2024-03-13T15:59:06.407Z,12.64
2024-03-13T16:01:34.283Z,12.48
2024-03-13T16:04:02.234Z,12.46
2024-03-13T16:06:29.863Z,12.86
2024-03-13T16:09:12.272Z,12.70
2024-03-13T16:11:39.639Z,12.82
2024-03-13T16:14:09.026Z,12.45
2024-03-13T16:16:35.567Z,12.44
2024-03-13T16:19:03.550Z,12.67
2024-03-13T16:21:30.258Z,12.75
2024-03-13T16:23:58.784Z,12.57
2024-03-13T16:26:25.468Z,12.46
2024-03-13T16:28:54.060Z,12.37
2024-03-13T16:31:20.830Z,12.42
2024-03-13T16:33:47.546Z,12.52
2024-03-13T16:36:14.245Z,12.27
2024-03-13T16:38:40.786Z,12.57
2024-03-13T16:41:08.229Z,12.20
2024-03-13T16:43:36.202Z,12.36
2024-03-13T16:46:02.874Z,12.94
2024-03-13T16:48:30.902Z,13.03
2024-03-13T16:51:00.035Z,12.64
2024-03-13T16:53:26.891Z,12.48
2024-03-13T16:55:54.066Z,12.84
2024-03-13T16:58:20.664Z,12.51
2024-03-13T17:00:47.117Z,12.51
2024-03-13T17:03:13.658Z,12.61
2024-03-13T17:05:40.963Z,13.07
2024-03-13T17:08:08.922Z,12.96
2024-03-13T17:10:35.623Z,13.15
2024-03-13T17:13:04.330Z,12.50
2024-03-13T17:15:31.336Z,12.76
2024-03-13T17:17:58.808Z,12.41
2024-03-13T17:20:26.144Z,12.67
2024-03-13T17:22:52.884Z,12.80
2024-03-13T17:25:19.913Z,13.08
2024-03-13T17:27:47.852Z,13.11
2024-03-13T17:30:14.738Z,12.73
2024-03-13T17:32:42.119Z,12.56
2024-03-13T17:35:10.444Z,12.55
2024-03-13T17:37:37.130Z,12.29
2024-03-13T17:40:08.427Z,12.32
2024-03-13T17:42:35.163Z,12.17
2024-03-13T17:45:01.917Z,12.32
2024-03-13T17:47:28.637Z,12.22
2024-03-13T17:49:55.231Z,12.41
2024-03-13T17:52:21.935Z,12.12
2024-03-13T17:54:48.460Z,12.39
2024-03-13T17:57:15.546Z,12.62
2024-03-13T17:59:43.324Z,12.31
2024-03-13T18:02:13.106Z,11.98
2024-03-13T18:04:42.687Z,12.49
2024-03-13T18:07:12.201Z,12.55
2024-03-13T18:09:41.353Z,12.64
2024-03-13T18:12:08.163Z,12.49
2024-03-13T18:14:34.669Z,12.67
2024-03-13T18:17:01.187Z,12.56
2024-03-13T18:19:27.805Z,12.46
2024-03-13T18:21:55.044Z,12.77
2024-03-13T18:24:21.620Z,12.85
2024-03-13T18:26:48.205Z,12.46
2024-03-13T18:29:14.983Z,12.21
2024-03-13T18:31:41.543Z,12.37
2024-03-13T18:34:08.725Z,12.54
2024-03-13T18:36:35.634Z,12.80
2024-03-13T18:39:02.152Z,12.85
2024-03-13T18:41:29.279Z,12.02
2024-03-13T18:43:56.395Z,12.42
2024-03-13T18:46:23.348Z,12.09
2024-03-13T18:48:50.873Z,12.15
2024-03-13T18:51:17.684Z,12.64
2024-03-13T18:53:47.822Z,12.52
2024-03-13T18:56:14.612Z,12.15
2024-03-13T18:58:42.181Z,12.59
2024-03-13T19:01:08.941Z,12.43
2024-03-13T19:03:35.600Z,12.36
2024-03-13T19:06:08.448Z,12.09
2024-03-13T19:08:34.952Z,12.16
2024-03-13T19:11:02.213Z,12.24
2024-03-13T19:13:28.887Z,12.25
2024-03-13T19:15:56.872Z,12.24
2024-03-13T19:18:23.493Z,12.31
2024-03-13T19:20:50.158Z,11.97
2024-03-13T19:23:16.745Z,12.20
2024-03-13T19:25:43.302Z,11.70
2024-03-13T19:28:09.929Z,12.05
2024-03-13T19:30:37.392Z,11.10
2024-03-13T19:33:05.626Z,11.17
2024-03-13T19:35:34.329Z,11.22
2024-03-13T19:38:00.889Z,11.55
2024-03-13T19:40:27.349Z,11.14
2024-03-13T19:42:55.402Z,10.26
2024-03-13T19:45:21.961Z,11.23
2024-03-13T19:47:48.550Z,11.56
2024-03-13T19:50:15.090Z,11.54
2024-03-13T19:52:44.089Z,11.61
2024-03-13T19:55:13.628Z,11.62
2024-03-13T19:57:41.266Z,11.58
2024-03-13T20:00:14.246Z,10.65
2024-03-13T20:02:42.043Z,11.14
2024-03-13T20:05:08.939Z,11.01
2024-03-13T20:07:36.077Z,11.35
2024-03-13T20:10:02.667Z,11.08
2024-03-13T20:12:29.283Z,11.31
2024-03-13T20:14:57.486Z,11.09
2024-03-13T20:17:24.143Z,11.23
2024-03-13T20:19:50.674Z,11.18
2024-03-13T20:22:18.744Z,11.15
2024-03-13T20:24:48.584Z,11.32
2024-03-13T20:27:16.164Z,11.37
2024-03-13T20:29:45.464Z,11.36
2024-03-13T20:32:12.031Z,11.33
2024-03-13T20:34:38.548Z,11.22
2024-03-13T20:37:05.368Z,11.00
2024-03-13T20:39:32.404Z,10.56
2024-03-13T20:41:59.110Z,10.51
2024-03-13T20:44:26.594Z,10.52
2024-03-13T20:46:53.212Z,10.62
2024-03-13T20:49:19.775Z,9.89
2024-03-13T20:51:47.460Z,10.45
2024-03-13T20:54:14.122Z,10.37
2024-03-13T20:56:41.475Z,10.61
2024-03-13T20:59:10.369Z,10.74
2024-03-13T21:01:36.929Z,10.33
2024-03-13T21:04:03.529Z,10.52
2024-03-13T21:06:30.040Z,10.55
2024-03-13T21:08:56.591Z,10.55
2024-03-13T21:11:23.459Z,10.55
2024-03-13T21:13:50.565Z,10.60
2024-03-13T21:16:20.782Z,10.68
2024-03-13T21:18:47.601Z,10.63
2024-03-13T21:21:14.600Z,10.70
2024-03-13T21:23:41.224Z,10.66
2024-03-13T21:26:10.678Z,10.72
2024-03-13T21:28:37.512Z,10.32
2024-03-13T21:31:07.862Z,10.59
2024-03-13T21:33:36.426Z,10.72
2024-03-13T21:36:04.387Z,10.90
2024-03-13T21:38:30.895Z,10.74
2024-03-13T21:40:59.995Z,11.02
2024-03-13T21:43:31.355Z,11.09
2024-03-13T21:45:59.163Z,11.03
2024-03-13T21:48:25.762Z,11.13
2024-03-13T21:50:52.572Z,10.99
2024-03-13T21:53:19.163Z,10.73
2024-03-13T21:55:47.265Z,10.81
2024-03-13T21:58:14.689Z,10.77
2024-03-13T22:00:41.709Z,10.73
2024-03-13T22:03:08.245Z,10.98
2024-03-13T22:05:34.691Z,11.15
2024-03-13T22:08:01.222Z,10.94
2024-03-13T22:10:27.759Z,10.80
2024-03-13T22:12:55.955Z,10.92
2024-03-13T22:15:22.750Z,10.97
2024-03-13T22:17:49.424Z,11.20
2024-03-13T22:20:16.677Z,11.48
2024-03-13T22:22:43.679Z,11.33
2024-03-13T22:25:11.205Z,11.49
2024-03-13T22:27:37.774Z,11.54
2024-03-13T22:30:04.760Z,11.51
2024-03-13T22:32:33.039Z,11.24
2024-03-13T22:34:59.810Z,11.00
2024-03-13T22:37:29.435Z,10.70
2024-03-13T22:39:55.953Z,11.01
2024-03-13T22:42:23.530Z,11.32
2024-03-13T22:44:50.380Z,11.18
2024-03-13T22:47:16.955Z,10.89
2024-03-13T22:49:46.352Z,10.83
2024-03-13T22:52:12.888Z,10.59
2024-03-13T22:54:39.802Z,10.41
2024-03-13T22:57:06.968Z,10.03
2024-03-13T22:59:33.568Z,9.87
2024-03-13T23:02:01.413Z,9.67
2024-03-13T23:04:27.961Z,9.77
2024-03-13T23:06:54.656Z,10.03
2024-03-13T23:09:21.223Z,10.12
2024-03-13T23:11:47.845Z,10.31
2024-03-13T23:14:15.181Z,9.68
2024-03-13T23:16:41.826Z,9.25
2024-03-13T23:19:08.320Z,9.98
2024-03-13T23:21:34.907Z,10.43
2024-03-13T23:24:01.442Z,10.62
2024-03-13T23:26:27.989Z,10.52
2024-03-13T23:28:54.892Z,10.65
2024-03-13T23:31:21.704Z,10.45
2024-03-13T23:33:48.384Z,10.57
2024-03-13T23:36:15.116Z,10.52
2024-03-13T23:38:42.398Z,10.76
2024-03-13T23:41:14.231Z,10.89
2024-03-13T23:43:41.231Z,10.98
2024-03-13T23:46:16.198Z,11.08
2024-03-13T23:48:42.728Z,10.82
2024-03-13T23:51:11.750Z,10.94
2024-03-13T23:53:38.361Z,10.83
2024-03-13T23:56:05.679Z,10.98
2024-03-13T23:58:37.248Z,11.10
